sensor_id;sensor_type;location;lat;lon;timestamp;P1;durP1;ratioP1;P2;durP2;ratioP2
53036;SDS011;38924;52.134;4.666;2023-01-31T00:01:03;19.08;;;5.80;;
53036;SDS011;38924;52.134;4.666;2023-01-31T00:03:29;20.80;;;5.68;;
53036;SDS011;38924;52.134;4.666;2023-01-31T00:05:57;28.70;;;6.28;;
53036;SDS011;38924;52.134;4.666;2023-01-31T00:08:24;23.65;;;6.88;;
53036;SDS011;38924;52.134;4.666;2023-01-31T00:10:50;26.90;;;6.22;;
53036;SDS011;38924;52.134;4.666;2023-01-31T00:13:16;18.42;;;6.13;;
53036;SDS011;38924;52.134;4.666;2023-01-31T00:15:41;28.42;;;6.85;;
53036;SDS011;38924;52.134;4.666;2023-01-31T00:18:07;19.35;;;5.90;;
53036;SDS011;38924;52.134;4.666;2023-01-31T00:20:32;28.27;;;7.50;;
53036;SDS011;38924;52.134;4.666;2023-01-31T00:22:58;23.27;;;6.32;;
53036;SDS011;38924;52.134;4.666;2023-01-31T00:25:24;24.58;;;8.27;;
53036;SDS011;38924;52.134;4.666;2023-01-31T00:27:49;22.70;;;6.57;;
53036;SDS011;38924;52.134;4.666;2023-01-31T00:30:15;23.42;;;6.55;;
53036;SDS011;38924;52.134;4.666;2023-01-31T00:32:44;21.95;;;6.53;;
53036;SDS011;38924;52.134;4.666;2023-01-31T00:35:10;29.85;;;7.30;;
53036;SDS011;38924;52.134;4.666;2023-01-31T00:37:35;19.17;;;6.85;;
53036;SDS011;38924;52.134;4.666;2023-01-31T00:40:01;21.45;;;6.03;;
53036;SDS011;38924;52.134;4.666;2023-01-31T00:42:27;27.92;;;7.28;;
53036;SDS011;38924;52.134;4.666;2023-01-31T00:44:54;23.67;;;7.68;;
53036;SDS011;38924;52.134;4.666;2023-01-31T00:47:20;26.30;;;6.93;;
53036;SDS011;38924;52.134;4.666;2023-01-31T00:49:46;29.70;;;6.88;;
53036;SDS011;38924;52.134;4.666;2023-01-31T00:52:11;19.35;;;5.28;;
53036;SDS011;38924;52.134;4.666;2023-01-31T00:54:37;24.20;;;7.60;;
53036;SDS011;38924;52.134;4.666;2023-01-31T00:57:04;22.75;;;6.72;;
53036;SDS011;38924;52.134;4.666;2023-01-31T00:59:30;20.35;;;5.65;;
53036;SDS011;38924;52.134;4.666;2023-01-31T01:01:55;30.55;;;5.93;;
53036;SDS011;38924;52.134;4.666;2023-01-31T01:04:22;28.60;;;5.97;;
53036;SDS011;38924;52.134;4.666;2023-01-31T01:06:47;20.77;;;7.15;;
53036;SDS011;38924;52.134;4.666;2023-01-31T01:09:15;29.27;;;6.03;;
53036;SDS011;38924;52.134;4.666;2023-01-31T01:11:40;24.08;;;6.15;;
53036;SDS011;38924;52.134;4.666;2023-01-31T01:14:08;23.42;;;6.55;;
53036;SDS011;38924;52.134;4.666;2023-01-31T01:16:35;25.52;;;6.65;;
53036;SDS011;38924;52.134;4.666;2023-01-31T01:19:09;26.38;;;7.80;;
53036;SDS011;38924;52.134;4.666;2023-01-31T01:21:36;24.50;;;5.70;;
53036;SDS011;38924;52.134;4.666;2023-01-31T01:24:04;25.88;;;6.72;;
53036;SDS011;38924;52.134;4.666;2023-01-31T01:26:31;21.58;;;5.55;;
53036;SDS011;38924;52.134;4.666;2023-01-31T01:28:57;29.88;;;6.63;;
53036;SDS011;38924;52.134;4.666;2023-01-31T01:31:23;23.65;;;7.00;;
53036;SDS011;38924;52.134;4.666;2023-01-31T01:33:55;20.50;;;6.53;;
53036;SDS011;38924;52.134;4.666;2023-01-31T01:36:23;25.15;;;6.20;;
53036;SDS011;38924;52.134;4.666;2023-01-31T01:38:50;21.05;;;6.93;;
53036;SDS011;38924;52.134;4.666;2023-01-31T01:41:16;25.42;;;7.00;;
53036;SDS011;38924;52.134;4.666;2023-01-31T01:43:47;26.23;;;6.20;;
53036;SDS011;38924;52.134;4.666;2023-01-31T01:46:18;29.33;;;7.93;;
53036;SDS011;38924;52.134;4.666;2023-01-31T01:48:45;29.67;;;7.22;;
53036;SDS011;38924;52.134;4.666;2023-01-31T01:51:12;24.05;;;8.27;;
53036;SDS011;38924;52.134;4.666;2023-01-31T01:53:40;25.70;;;8.10;;
53036;SDS011;38924;52.134;4.666;2023-01-31T01:56:09;33.03;;;8.18;;
53036;SDS011;38924;52.134;4.666;2023-01-31T01:58:38;29.50;;;7.88;;
53036;SDS011;38924;52.134;4.666;2023-01-31T02:01:06;24.83;;;7.60;;
53036;SDS011;38924;52.134;4.666;2023-01-31T02:03:32;24.60;;;7.30;;
53036;SDS011;38924;52.134;4.666;2023-01-31T02:06:04;37.40;;;9.95;;
53036;SDS011;38924;52.134;4.666;2023-01-31T02:08:31;31.45;;;8.02;;
53036;SDS011;38924;52.134;4.666;2023-01-31T02:11:12;25.35;;;8.25;;
53036;SDS011;38924;52.134;4.666;2023-01-31T02:13:40;35.45;;;9.73;;
53036;SDS011;38924;52.134;4.666;2023-01-31T02:16:13;34.38;;;10.55;;
53036;SDS011;38924;52.134;4.666;2023-01-31T02:18:39;31.85;;;9.20;;
53036;SDS011;38924;52.134;4.666;2023-01-31T02:24:12;28.73;;;9.82;;
53036;SDS011;38924;52.134;4.666;2023-01-31T02:52:34;39.92;;;9.75;;
53036;SDS011;38924;52.134;4.666;2023-01-31T02:57:58;26.98;;;9.70;;
53036;SDS011;38924;52.134;4.666;2023-01-31T03:00:25;38.80;;;9.80;;
53036;SDS011;38924;52.134;4.666;2023-01-31T03:02:51;38.05;;;12.30;;
53036;SDS011;38924;52.134;4.666;2023-01-31T03:05:17;37.00;;;10.77;;
53036;SDS011;38924;52.134;4.666;2023-01-31T03:07:46;30.30;;;11.38;;
53036;SDS011;38924;52.134;4.666;2023-01-31T03:15:28;44.10;;;11.15;;
53036;SDS011;38924;52.134;4.666;2023-01-31T03:18:21;47.67;;;10.65;;
53036;SDS011;38924;52.134;4.666;2023-01-31T03:23:19;39.17;;;11.45;;
53036;SDS011;38924;52.134;4.666;2023-01-31T03:25:47;35.72;;;12.13;;
53036;SDS011;38924;52.134;4.666;2023-01-31T03:28:14;40.03;;;12.02;;
53036;SDS011;38924;52.134;4.666;2023-01-31T03:30:48;36.63;;;12.90;;
53036;SDS011;38924;52.134;4.666;2023-01-31T03:33:19;42.42;;;12.25;;
53036;SDS011;38924;52.134;4.666;2023-01-31T03:35:52;41.72;;;11.65;;
53036;SDS011;38924;52.134;4.666;2023-01-31T03:38:20;56.15;;;12.73;;
53036;SDS011;38924;52.134;4.666;2023-01-31T03:40:47;37.70;;;12.02;;
53036;SDS011;38924;52.134;4.666;2023-01-31T03:46:34;37.28;;;11.13;;
53036;SDS011;38924;52.134;4.666;2023-01-31T03:48:34;34.00;;;10.77;;
53036;SDS011;38924;52.134;4.666;2023-01-31T03:51:02;52.53;;;14.85;;
53036;SDS011;38924;52.134;4.666;2023-01-31T03:53:46;31.15;;;12.60;;
53036;SDS011;38924;52.134;4.666;2023-01-31T03:56:31;42.60;;;13.75;;
53036;SDS011;38924;52.134;4.666;2023-01-31T03:58:58;28.90;;;12.43;;
53036;SDS011;38924;52.134;4.666;2023-01-31T04:01:27;26.90;;;10.63;;
53036;SDS011;38924;52.134;4.666;2023-01-31T04:06:18;36.00;;;11.32;;
53036;SDS011;38924;52.134;4.666;2023-01-31T04:08:44;41.67;;;14.88;;
53036;SDS011;38924;52.134;4.666;2023-01-31T04:11:11;40.15;;;12.20;;
53036;SDS011;38924;52.134;4.666;2023-01-31T04:13:37;38.17;;;11.57;;
53036;SDS011;38924;52.134;4.666;2023-01-31T04:16:03;31.42;;;11.30;;
53036;SDS011;38924;52.134;4.666;2023-01-31T04:18:32;33.88;;;11.32;;
53036;SDS011;38924;52.134;4.666;2023-01-31T04:20:58;55.45;;;12.23;;
53036;SDS011;38924;52.134;4.666;2023-01-31T04:23:23;44.78;;;11.55;;
53036;SDS011;38924;52.134;4.666;2023-01-31T04:25:55;34.78;;;11.07;;
53036;SDS011;38924;52.134;4.666;2023-01-31T04:28:23;42.53;;;12.93;;
53036;SDS011;38924;52.134;4.666;2023-01-31T04:30:52;34.55;;;11.38;;
53036;SDS011;38924;52.134;4.666;2023-01-31T04:33:18;36.15;;;9.32;;
53036;SDS011;38924;52.134;4.666;2023-01-31T04:35:44;29.77;;;10.18;;
53036;SDS011;38924;52.134;4.666;2023-01-31T04:38:10;33.97;;;8.43;;
53036;SDS011;38924;52.134;4.666;2023-01-31T04:40:35;30.85;;;9.30;;
53036;SDS011;38924;52.134;4.666;2023-01-31T04:43:01;39.08;;;9.57;;
53036;SDS011;38924;52.134;4.666;2023-01-31T04:45:27;28.15;;;9.98;;
53036;SDS011;38924;52.134;4.666;2023-01-31T04:47:52;46.38;;;10.85;;
53036;SDS011;38924;52.134;4.666;2023-01-31T04:50:18;39.17;;;10.93;;
53036;SDS011;38924;52.134;4.666;2023-01-31T04:52:44;31.45;;;10.00;;
53036;SDS011;38924;52.134;4.666;2023-01-31T04:55:11;32.80;;;10.27;;
53036;SDS011;38924;52.134;4.666;2023-01-31T04:57:37;39.97;;;9.68;;
53036;SDS011;38924;52.134;4.666;2023-01-31T05:00:03;41.00;;;8.93;;
53036;SDS011;38924;52.134;4.666;2023-01-31T05:02:30;35.00;;;9.07;;
53036;SDS011;38924;52.134;4.666;2023-01-31T05:04:56;32.85;;;10.10;;
53036;SDS011;38924;52.134;4.666;2023-01-31T05:07:21;25.02;;;9.68;;
53036;SDS011;38924;52.134;4.666;2023-01-31T05:09:50;37.95;;;8.77;;
53036;SDS011;38924;52.134;4.666;2023-01-31T05:12:15;26.77;;;8.60;;
53036;SDS011;38924;52.134;4.666;2023-01-31T05:14:41;39.35;;;8.70;;
53036;SDS011;38924;52.134;4.666;2023-01-31T05:17:07;23.63;;;8.25;;
53036;SDS011;38924;52.134;4.666;2023-01-31T05:19:32;32.13;;;9.35;;
53036;SDS011;38924;52.134;4.666;2023-01-31T05:21:58;24.10;;;9.75;;
53036;SDS011;38924;52.134;4.666;2023-01-31T05:24:24;28.95;;;9.77;;
53036;SDS011;38924;52.134;4.666;2023-01-31T05:26:50;33.45;;;8.55;;
53036;SDS011;38924;52.134;4.666;2023-01-31T05:29:18;33.03;;;10.70;;
53036;SDS011;38924;52.134;4.666;2023-01-31T05:31:44;32.13;;;9.05;;
53036;SDS011;38924;52.134;4.666;2023-01-31T05:34:10;31.25;;;8.00;;
53036;SDS011;38924;52.134;4.666;2023-01-31T05:36:40;39.20;;;9.77;;
53036;SDS011;38924;52.134;4.666;2023-01-31T05:39:06;35.70;;;8.95;;
53036;SDS011;38924;52.134;4.666;2023-01-31T05:41:33;26.95;;;9.85;;
53036;SDS011;38924;52.134;4.666;2023-01-31T05:44:01;25.77;;;8.75;;
53036;SDS011;38924;52.134;4.666;2023-01-31T05:46:27;29.75;;;8.25;;
53036;SDS011;38924;52.134;4.666;2023-01-31T05:48:54;26.10;;;9.00;;
53036;SDS011;38924;52.134;4.666;2023-01-31T05:51:20;27.05;;;8.07;;
53036;SDS011;38924;52.134;4.666;2023-01-31T05:53:46;28.65;;;9.25;;
53036;SDS011;38924;52.134;4.666;2023-01-31T05:56:13;27.67;;;8.82;;
53036;SDS011;38924;52.134;4.666;2023-01-31T05:58:39;41.38;;;10.73;;
53036;SDS011;38924;52.134;4.666;2023-01-31T06:01:04;24.60;;;7.32;;
53036;SDS011;38924;52.134;4.666;2023-01-31T06:03:30;29.42;;;7.55;;
53036;SDS011;38924;52.134;4.666;2023-01-31T06:05:58;26.05;;;7.43;;
53036;SDS011;38924;52.134;4.666;2023-01-31T06:08:24;31.20;;;8.55;;
53036;SDS011;38924;52.134;4.666;2023-01-31T06:10:49;29.40;;;7.63;;
53036;SDS011;38924;52.134;4.666;2023-01-31T06:13:15;29.27;;;8.45;;
53036;SDS011;38924;52.134;4.666;2023-01-31T06:15:42;33.33;;;8.52;;
53036;SDS011;38924;52.134;4.666;2023-01-31T06:18:07;34.70;;;9.27;;
53036;SDS011;38924;52.134;4.666;2023-01-31T06:20:33;25.98;;;8.38;;
53036;SDS011;38924;52.134;4.666;2023-01-31T06:22:58;27.80;;;7.78;;
53036;SDS011;38924;52.134;4.666;2023-01-31T06:25:28;24.75;;;8.75;;
53036;SDS011;38924;52.134;4.666;2023-01-31T06:27:54;33.05;;;8.23;;
53036;SDS011;38924;52.134;4.666;2023-01-31T06:30:20;29.65;;;8.38;;
53036;SDS011;38924;52.134;4.666;2023-01-31T06:32:45;29.20;;;9.82;;
53036;SDS011;38924;52.134;4.666;2023-01-31T06:35:11;22.85;;;8.10;;
53036;SDS011;38924;52.134;4.666;2023-01-31T06:37:37;34.63;;;9.45;;
53036;SDS011;38924;52.134;4.666;2023-01-31T06:40:02;20.75;;;7.15;;
53036;SDS011;38924;52.134;4.666;2023-01-31T06:42:28;26.00;;;8.18;;
53036;SDS011;38924;52.134;4.666;2023-01-31T06:44:54;26.85;;;8.30;;
53036;SDS011;38924;52.134;4.666;2023-01-31T06:47:19;34.75;;;8.90;;
53036;SDS011;38924;52.134;4.666;2023-01-31T06:49:45;40.67;;;9.77;;
53036;SDS011;38924;52.134;4.666;2023-01-31T06:52:11;30.98;;;9.52;;
53036;SDS011;38924;52.134;4.666;2023-01-31T06:54:36;35.63;;;8.27;;
53036;SDS011;38924;52.134;4.666;2023-01-31T06:57:02;25.35;;;7.50;;
53036;SDS011;38924;52.134;4.666;2023-01-31T06:59:28;37.05;;;9.68;;
53036;SDS011;38924;52.134;4.666;2023-01-31T07:01:54;32.33;;;9.10;;
53036;SDS011;38924;52.134;4.666;2023-01-31T07:04:20;33.70;;;10.05;;
53036;SDS011;38924;52.134;4.666;2023-01-31T07:06:46;25.35;;;8.25;;
53036;SDS011;38924;52.134;4.666;2023-01-31T07:09:14;21.40;;;8.80;;
53036;SDS011;38924;52.134;4.666;2023-01-31T07:11:40;29.55;;;7.70;;
53036;SDS011;38924;52.134;4.666;2023-01-31T07:14:06;31.27;;;8.45;;
53036;SDS011;38924;52.134;4.666;2023-01-31T07:16:31;28.40;;;8.02;;
53036;SDS011;38924;52.134;4.666;2023-01-31T07:18:57;35.78;;;9.15;;
53036;SDS011;38924;52.134;4.666;2023-01-31T07:21:23;29.58;;;7.50;;
53036;SDS011;38924;52.134;4.666;2023-01-31T07:23:51;33.22;;;9.57;;
53036;SDS011;38924;52.134;4.666;2023-01-31T07:26:17;28.10;;;8.40;;
53036;SDS011;38924;52.134;4.666;2023-01-31T07:28:43;32.22;;;8.13;;
53036;SDS011;38924;52.134;4.666;2023-01-31T07:31:12;36.20;;;8.43;;
53036;SDS011;38924;52.134;4.666;2023-01-31T07:33:40;21.52;;;9.23;;
53036;SDS011;38924;52.134;4.666;2023-01-31T07:36:06;29.02;;;8.13;;
53036;SDS011;38924;52.134;4.666;2023-01-31T07:38:34;31.42;;;7.80;;
53036;SDS011;38924;52.134;4.666;2023-01-31T07:41:01;28.30;;;8.98;;
53036;SDS011;38924;52.134;4.666;2023-01-31T07:46:10;36.30;;;9.60;;
53036;SDS011;38924;52.134;4.666;2023-01-31T07:48:36;32.00;;;7.68;;
53036;SDS011;38924;52.134;4.666;2023-01-31T07:51:02;23.88;;;8.05;;
53036;SDS011;38924;52.134;4.666;2023-01-31T07:53:29;22.25;;;7.53;;
53036;SDS011;38924;52.134;4.666;2023-01-31T07:56:12;27.50;;;7.50;;
53036;SDS011;38924;52.134;4.666;2023-01-31T07:58:38;23.35;;;6.47;;
53036;SDS011;38924;52.134;4.666;2023-01-31T08:01:04;29.30;;;9.27;;
53036;SDS011;38924;52.134;4.666;2023-01-31T08:03:59;23.50;;;7.80;;
53036;SDS011;38924;52.134;4.666;2023-01-31T08:06:25;12.65;;;7.05;;
53036;SDS011;38924;52.134;4.666;2023-01-31T08:08:51;18.92;;;7.00;;
53036;SDS011;38924;52.134;4.666;2023-01-31T08:11:17;31.10;;;10.98;;
53036;SDS011;38924;52.134;4.666;2023-01-31T08:13:43;22.98;;;7.82;;
53036;SDS011;38924;52.134;4.666;2023-01-31T08:16:09;23.60;;;8.02;;
53036;SDS011;38924;52.134;4.666;2023-01-31T08:18:35;29.77;;;8.68;;
53036;SDS011;38924;52.134;4.666;2023-01-31T08:21:01;22.98;;;7.18;;
53036;SDS011;38924;52.134;4.666;2023-01-31T08:23:27;23.27;;;7.20;;
53036;SDS011;38924;52.134;4.666;2023-01-31T08:25:58;23.08;;;7.32;;
53036;SDS011;38924;52.134;4.666;2023-01-31T08:28:23;25.58;;;6.82;;
53036;SDS011;38924;52.134;4.666;2023-01-31T08:30:49;34.22;;;8.35;;
53036;SDS011;38924;52.134;4.666;2023-01-31T08:33:15;21.98;;;8.60;;
53036;SDS011;38924;52.134;4.666;2023-01-31T08:35:40;30.00;;;7.88;;
53036;SDS011;38924;52.134;4.666;2023-01-31T08:38:06;26.17;;;7.65;;
53036;SDS011;38924;52.134;4.666;2023-01-31T08:40:32;22.23;;;8.52;;
53036;SDS011;38924;52.134;4.666;2023-01-31T08:43:00;23.42;;;7.00;;
53036;SDS011;38924;52.134;4.666;2023-01-31T08:45:29;26.48;;;8.68;;
53036;SDS011;38924;52.134;4.666;2023-01-31T08:47:55;24.10;;;8.73;;
53036;SDS011;38924;52.134;4.666;2023-01-31T08:50:22;25.23;;;9.18;;
53036;SDS011;38924;52.134;4.666;2023-01-31T08:52:51;23.48;;;8.45;;
53036;SDS011;38924;52.134;4.666;2023-01-31T08:55:17;21.35;;;7.97;;
53036;SDS011;38924;52.134;4.666;2023-01-31T08:57:43;29.27;;;9.50;;
53036;SDS011;38924;52.134;4.666;2023-01-31T09:00:11;33.17;;;9.50;;
53036;SDS011;38924;52.134;4.666;2023-01-31T09:02:37;25.52;;;8.90;;
53036;SDS011;38924;52.134;4.666;2023-01-31T09:05:03;28.42;;;9.45;;
53036;SDS011;38924;52.134;4.666;2023-01-31T09:07:33;23.83;;;7.30;;
53036;SDS011;38924;52.134;4.666;2023-01-31T09:09:58;41.78;;;8.50;;
53036;SDS011;38924;52.134;4.666;2023-01-31T09:12:24;24.80;;;7.88;;
53036;SDS011;38924;52.134;4.666;2023-01-31T09:14:50;24.35;;;7.97;;
53036;SDS011;38924;52.134;4.666;2023-01-31T09:17:18;19.33;;;7.80;;
53036;SDS011;38924;52.134;4.666;2023-01-31T09:19:44;22.38;;;7.50;;
53036;SDS011;38924;52.134;4.666;2023-01-31T09:22:09;27.77;;;8.18;;
53036;SDS011;38924;52.134;4.666;2023-01-31T09:24:35;28.13;;;10.00;;
53036;SDS011;38924;52.134;4.666;2023-01-31T09:27:01;30.65;;;10.25;;
53036;SDS011;38924;52.134;4.666;2023-01-31T09:29:27;27.35;;;8.93;;
53036;SDS011;38924;52.134;4.666;2023-01-31T09:31:54;34.97;;;9.45;;
53036;SDS011;38924;52.134;4.666;2023-01-31T09:34:20;35.22;;;9.18;;
53036;SDS011;38924;52.134;4.666;2023-01-31T09:36:46;29.75;;;9.45;;
53036;SDS011;38924;52.134;4.666;2023-01-31T09:39:12;32.50;;;8.82;;
53036;SDS011;38924;52.134;4.666;2023-01-31T09:41:41;22.75;;;8.57;;
53036;SDS011;38924;52.134;4.666;2023-01-31T09:44:12;24.05;;;7.95;;
53036;SDS011;38924;52.134;4.666;2023-01-31T09:46:40;33.03;;;9.10;;
53036;SDS011;38924;52.134;4.666;2023-01-31T09:49:07;28.75;;;8.05;;
53036;SDS011;38924;52.134;4.666;2023-01-31T09:51:35;25.40;;;7.78;;
53036;SDS011;38924;52.134;4.666;2023-01-31T09:54:02;29.95;;;9.68;;
53036;SDS011;38924;52.134;4.666;2023-01-31T09:56:40;24.95;;;8.90;;
53036;SDS011;38924;52.134;4.666;2023-01-31T09:59:22;28.88;;;8.70;;
53036;SDS011;38924;52.134;4.666;2023-01-31T10:01:54;24.33;;;7.13;;
53036;SDS011;38924;52.134;4.666;2023-01-31T10:04:29;24.38;;;8.27;;
53036;SDS011;38924;52.134;4.666;2023-01-31T10:09:26;26.83;;;7.95;;
53036;SDS011;38924;52.134;4.666;2023-01-31T10:12:26;26.50;;;8.35;;
53036;SDS011;38924;52.134;4.666;2023-01-31T10:14:46;34.50;;;8.50;;
53036;SDS011;38924;52.134;4.666;2023-01-31T10:17:24;39.00;;;8.95;;
53036;SDS011;38924;52.134;4.666;2023-01-31T10:25:26;29.27;;;10.43;;
53036;SDS011;38924;52.134;4.666;2023-01-31T10:27:53;31.27;;;8.98;;
53036;SDS011;38924;52.134;4.666;2023-01-31T10:30:26;24.00;;;7.35;;
53036;SDS011;38924;52.134;4.666;2023-01-31T10:33:02;33.72;;;9.30;;
53036;SDS011;38924;52.134;4.666;2023-01-31T10:35:32;32.67;;;9.32;;
53036;SDS011;38924;52.134;4.666;2023-01-31T10:38:09;25.98;;;8.32;;
53036;SDS011;38924;52.134;4.666;2023-01-31T10:40:37;38.08;;;9.13;;
53036;SDS011;38924;52.134;4.666;2023-01-31T10:43:08;29.52;;;8.90;;
53036;SDS011;38924;52.134;4.666;2023-01-31T10:45:34;24.27;;;8.57;;
53036;SDS011;38924;52.134;4.666;2023-01-31T10:58:27;33.75;;;8.52;;
53036;SDS011;38924;52.134;4.666;2023-01-31T11:00:53;23.92;;;7.97;;
53036;SDS011;38924;52.134;4.666;2023-01-31T11:03:19;36.67;;;10.07;;
53036;SDS011;38924;52.134;4.666;2023-01-31T11:05:52;21.63;;;8.30;;
53036;SDS011;38924;52.134;4.666;2023-01-31T11:08:24;29.25;;;8.30;;
53036;SDS011;38924;52.134;4.666;2023-01-31T11:10:51;36.90;;;10.48;;
53036;SDS011;38924;52.134;4.666;2023-01-31T11:13:17;23.85;;;8.38;;
53036;SDS011;38924;52.134;4.666;2023-01-31T11:15:43;26.95;;;9.45;;
53036;SDS011;38924;52.134;4.666;2023-01-31T11:18:12;34.55;;;9.52;;
53036;SDS011;38924;52.134;4.666;2023-01-31T11:20:44;29.90;;;9.13;;
53036;SDS011;38924;52.134;4.666;2023-01-31T11:23:14;30.58;;;10.02;;
53036;SDS011;38924;52.134;4.666;2023-01-31T11:25:45;25.23;;;8.60;;
53036;SDS011;38924;52.134;4.666;2023-01-31T11:28:18;29.83;;;8.25;;
53036;SDS011;38924;52.134;4.666;2023-01-31T11:30:46;24.67;;;8.80;;
53036;SDS011;38924;52.134;4.666;2023-01-31T11:36:13;29.60;;;8.50;;
53036;SDS011;38924;52.134;4.666;2023-01-31T11:38:39;36.50;;;8.07;;
53036;SDS011;38924;52.134;4.666;2023-01-31T11:41:24;31.75;;;8.80;;
53036;SDS011;38924;52.134;4.666;2023-01-31T11:44:00;29.77;;;9.38;;
53036;SDS011;38924;52.134;4.666;2023-01-31T11:46:30;34.45;;;10.75;;
53036;SDS011;38924;52.134;4.666;2023-01-31T11:48:56;25.40;;;9.30;;
53036;SDS011;38924;52.134;4.666;2023-01-31T11:51:23;34.42;;;9.70;;
53036;SDS011;38924;52.134;4.666;2023-01-31T11:53:51;32.67;;;9.38;;
53036;SDS011;38924;52.134;4.666;2023-01-31T11:56:19;26.40;;;8.98;;
53036;SDS011;38924;52.134;4.666;2023-01-31T11:58:47;35.67;;;8.85;;
53036;SDS011;38924;52.134;4.666;2023-01-31T12:03:56;33.45;;;11.00;;
53036;SDS011;38924;52.134;4.666;2023-01-31T12:06:26;35.17;;;8.90;;
53036;SDS011;38924;52.134;4.666;2023-01-31T12:08:53;31.48;;;9.02;;
53036;SDS011;38924;52.134;4.666;2023-01-31T12:13:59;24.63;;;8.77;;
53036;SDS011;38924;52.134;4.666;2023-01-31T12:16:25;27.15;;;9.43;;
53036;SDS011;38924;52.134;4.666;2023-01-31T12:32:01;21.83;;;7.70;;
53036;SDS011;38924;52.134;4.666;2023-01-31T12:44:29;25.55;;;9.07;;
53036;SDS011;38924;52.134;4.666;2023-01-31T12:59:38;28.15;;;8.50;;
53036;SDS011;38924;52.134;4.666;2023-01-31T13:07:26;24.63;;;8.88;;
53036;SDS011;38924;52.134;4.666;2023-01-31T13:09:53;29.48;;;9.45;;
53036;SDS011;38924;52.134;4.666;2023-01-31T13:12:21;21.38;;;9.68;;
53036;SDS011;38924;52.134;4.666;2023-01-31T13:14:57;26.42;;;8.95;;
53036;SDS011;38924;52.134;4.666;2023-01-31T13:17:28;28.25;;;9.35;;
53036;SDS011;38924;52.134;4.666;2023-01-31T13:20:00;25.80;;;8.73;;
53036;SDS011;38924;52.134;4.666;2023-01-31T13:22:35;27.33;;;9.18;;
53036;SDS011;38924;52.134;4.666;2023-01-31T13:25:13;30.55;;;9.45;;
53036;SDS011;38924;52.134;4.666;2023-01-31T13:30:43;23.90;;;8.02;;
53036;SDS011;38924;52.134;4.666;2023-01-31T13:33:00;26.50;;;7.50;;
53036;SDS011;38924;52.134;4.666;2023-01-31T13:35:31;30.10;;;8.55;;
53036;SDS011;38924;52.134;4.666;2023-01-31T13:37:59;20.02;;;8.50;;
53036;SDS011;38924;52.134;4.666;2023-01-31T13:40:28;24.08;;;9.18;;
53036;SDS011;38924;52.134;4.666;2023-01-31T13:42:59;24.33;;;9.13;;
53036;SDS011;38924;52.134;4.666;2023-01-31T13:47:54;32.55;;;8.43;;
53036;SDS011;38924;52.134;4.666;2023-01-31T13:53:04;33.22;;;9.65;;
53036;SDS011;38924;52.134;4.666;2023-01-31T13:55:33;20.90;;;9.05;;
53036;SDS011;38924;52.134;4.666;2023-01-31T13:58:33;23.20;;;8.32;;
53036;SDS011;38924;52.134;4.666;2023-01-31T14:00:56;28.60;;;9.10;;
53036;SDS011;38924;52.134;4.666;2023-01-31T14:03:24;28.77;;;8.60;;
53036;SDS011;38924;52.134;4.666;2023-01-31T14:05:59;17.95;;;7.55;;
53036;SDS011;38924;52.134;4.666;2023-01-31T14:10:51;27.13;;;8.82;;
53036;SDS011;38924;52.134;4.666;2023-01-31T14:16:32;24.77;;;7.43;;
53036;SDS011;38924;52.134;4.666;2023-01-31T14:18:58;33.40;;;10.85;;
53036;SDS011;38924;52.134;4.666;2023-01-31T14:23:56;26.00;;;7.70;;
53036;SDS011;38924;52.134;4.666;2023-01-31T14:29:07;27.80;;;8.75;;
53036;SDS011;38924;52.134;4.666;2023-01-31T14:31:33;27.95;;;8.13;;
53036;SDS011;38924;52.134;4.666;2023-01-31T14:33:59;25.05;;;7.88;;
53036;SDS011;38924;52.134;4.666;2023-01-31T14:36:51;24.17;;;9.27;;
53036;SDS011;38924;52.134;4.666;2023-01-31T14:39:14;32.20;;;8.88;;
53036;SDS011;38924;52.134;4.666;2023-01-31T14:57:26;24.10;;;8.00;;
53036;SDS011;38924;52.134;4.666;2023-01-31T15:04:55;25.50;;;7.05;;
53036;SDS011;38924;52.134;4.666;2023-01-31T15:07:21;20.70;;;8.18;;
53036;SDS011;38924;52.134;4.666;2023-01-31T15:09:47;19.63;;;7.30;;
53036;SDS011;38924;52.134;4.666;2023-01-31T15:15:02;37.55;;;7.45;;
53036;SDS011;38924;52.134;4.666;2023-01-31T15:17:29;35.30;;;8.52;;
53036;SDS011;38924;52.134;4.666;2023-01-31T15:19:59;30.08;;;7.40;;
53036;SDS011;38924;52.134;4.666;2023-01-31T15:22:27;24.35;;;8.55;;
53036;SDS011;38924;52.134;4.666;2023-01-31T15:24:55;37.13;;;8.18;;
53036;SDS011;38924;52.134;4.666;2023-01-31T15:27:22;35.65;;;8.88;;
53036;SDS011;38924;52.134;4.666;2023-01-31T15:29:54;23.67;;;8.32;;
53036;SDS011;38924;52.134;4.666;2023-01-31T15:32:21;31.25;;;9.77;;
53036;SDS011;38924;52.134;4.666;2023-01-31T15:34:52;25.80;;;8.55;;
53036;SDS011;38924;52.134;4.666;2023-01-31T15:37:20;29.70;;;9.55;;
53036;SDS011;38924;52.134;4.666;2023-01-31T15:40:04;24.65;;;9.90;;
53036;SDS011;38924;52.134;4.666;2023-01-31T15:42:32;23.67;;;8.00;;
53036;SDS011;38924;52.134;4.666;2023-01-31T15:47:42;31.42;;;7.30;;
53036;SDS011;38924;52.134;4.666;2023-01-31T15:50:12;30.48;;;8.15;;
53036;SDS011;38924;52.134;4.666;2023-01-31T15:52:37;33.33;;;7.63;;
53036;SDS011;38924;52.134;4.666;2023-01-31T15:55:03;27.73;;;7.75;;
53036;SDS011;38924;52.134;4.666;2023-01-31T15:58:07;23.58;;;8.80;;
53036;SDS011;38924;52.134;4.666;2023-01-31T16:00:26;29.77;;;7.22;;
53036;SDS011;38924;52.134;4.666;2023-01-31T16:02:52;26.90;;;8.60;;
53036;SDS011;38924;52.134;4.666;2023-01-31T16:05:35;23.55;;;6.82;;
53036;SDS011;38924;52.134;4.666;2023-01-31T16:08:03;35.38;;;8.57;;
53036;SDS011;38924;52.134;4.666;2023-01-31T16:10:29;25.65;;;7.13;;
53036;SDS011;38924;52.134;4.666;2023-01-31T16:12:57;21.33;;;7.22;;
53036;SDS011;38924;52.134;4.666;2023-01-31T16:15:29;29.70;;;7.80;;
53036;SDS011;38924;52.134;4.666;2023-01-31T16:17:56;31.00;;;8.73;;
53036;SDS011;38924;52.134;4.666;2023-01-31T16:21:09;27.65;;;7.68;;
53036;SDS011;38924;52.134;4.666;2023-01-31T16:26:10;30.95;;;7.20;;
53036;SDS011;38924;52.134;4.666;2023-01-31T16:28:38;32.42;;;8.15;;
53036;SDS011;38924;52.134;4.666;2023-01-31T16:31:06;25.20;;;7.90;;
53036;SDS011;38924;52.134;4.666;2023-01-31T16:33:32;35.40;;;9.05;;
53036;SDS011;38924;52.134;4.666;2023-01-31T16:36:01;28.45;;;8.35;;
53036;SDS011;38924;52.134;4.666;2023-01-31T16:38:30;30.50;;;8.38;;
53036;SDS011;38924;52.134;4.666;2023-01-31T16:40:56;29.25;;;9.20;;
53036;SDS011;38924;52.134;4.666;2023-01-31T16:43:30;33.53;;;7.90;;
53036;SDS011;38924;52.134;4.666;2023-01-31T16:45:57;25.70;;;8.88;;
53036;SDS011;38924;52.134;4.666;2023-01-31T16:48:25;30.35;;;9.20;;
53036;SDS011;38924;52.134;4.666;2023-01-31T16:50:52;32.28;;;10.27;;
53036;SDS011;38924;52.134;4.666;2023-01-31T16:55:46;30.77;;;8.32;;
53036;SDS011;38924;52.134;4.666;2023-01-31T16:58:45;33.22;;;8.10;;
53036;SDS011;38924;52.134;4.666;2023-01-31T17:01:32;26.35;;;8.88;;
53036;SDS011;38924;52.134;4.666;2023-01-31T17:06:27;33.97;;;8.85;;
53036;SDS011;38924;52.134;4.666;2023-01-31T17:08:56;39.38;;;9.75;;
53036;SDS011;38924;52.134;4.666;2023-01-31T17:11:24;39.10;;;9.68;;
53036;SDS011;38924;52.134;4.666;2023-01-31T17:13:50;31.98;;;10.27;;
53036;SDS011;38924;52.134;4.666;2023-01-31T17:16:20;33.30;;;8.50;;
53036;SDS011;38924;52.134;4.666;2023-01-31T17:18:50;44.40;;;10.35;;
53036;SDS011;38924;52.134;4.666;2023-01-31T17:21:16;25.80;;;9.35;;
53036;SDS011;38924;52.134;4.666;2023-01-31T17:23:42;53.72;;;9.98;;
53036;SDS011;38924;52.134;4.666;2023-01-31T17:26:12;30.15;;;8.85;;
53036;SDS011;38924;52.134;4.666;2023-01-31T17:28:39;30.33;;;7.93;;